createdAt,value
2022-12-08T00:00:17.545Z,16.83
2022-12-08T00:00:50.001Z,14.93
2022-12-08T00:01:24.610Z,14.65
2022-12-08T00:01:56.579Z,16.12
2022-12-08T00:02:28.662Z,17.17
2022-12-08T00:03:00.844Z,17.12
2022-12-08T00:03:33.803Z,15.98
2022-12-08T00:04:06.556Z,17.58
2022-12-08T00:04:58.399Z,17.15
2022-12-08T00:05:48.803Z,17.60
2022-12-08T00:06:42.390Z,16.37
2022-12-08T00:07:32.845Z,16.00
2022-12-08T00:08:23.863Z,16.98
2022-12-08T00:09:14.542Z,15.85
2022-12-08T00:09:46.528Z,15.15
2022-12-08T00:10:47.217Z,16.30
2022-12-08T00:11:16.067Z,15.32
2022-12-08T00:12:11.118Z,15.00
2022-12-08T00:12:42.965Z,15.80
2022-12-08T00:13:14.822Z,15.05
2022-12-08T00:13:46.980Z,14.43
2022-12-08T00:14:19.597Z,15.82
2022-12-08T00:14:51.465Z,14.85
2022-12-08T00:15:23.313Z,15.38
2022-12-08T00:16:00.693Z,14.35
2022-12-08T00:16:32.582Z,14.73
2022-12-08T00:17:06.903Z,14.73
2022-12-08T00:17:38.838Z,14.82
2022-12-08T00:18:10.641Z,13.75
2022-12-08T00:18:42.462Z,13.23
2022-12-08T00:19:14.292Z,13.32
2022-12-08T00:19:46.221Z,15.05
2022-12-08T00:20:18.134Z,13.62
2022-12-08T00:20:58.152Z,13.88
2022-12-08T00:21:30.009Z,14.32
2022-12-08T00:22:03.197Z,15.02
2022-12-08T00:22:35.343Z,14.65
2022-12-08T00:23:07.333Z,14.68
2022-12-08T00:23:39.231Z,14.20
2022-12-08T00:24:11.274Z,14.80
2022-12-08T00:24:47.638Z,14.57
2022-12-08T00:25:19.539Z,13.82
2022-12-08T00:25:51.416Z,13.65
2022-12-08T00:26:23.754Z,14.07
2022-12-08T00:26:55.619Z,14.05
2022-12-08T00:27:28.229Z,13.18
2022-12-08T00:28:00.354Z,13.32
2022-12-08T00:28:33.475Z,13.60
2022-12-08T00:29:06.108Z,14.10
2022-12-08T00:29:38.780Z,12.98
2022-12-08T00:30:11.118Z,13.13
2022-12-08T00:30:43.617Z,12.85
2022-12-08T00:31:15.699Z,13.15
2022-12-08T00:31:47.727Z,13.43
2022-12-08T00:32:19.624Z,14.00
2022-12-08T00:32:51.516Z,14.07
2022-12-08T00:33:23.713Z,14.00
2022-12-08T00:33:55.745Z,13.25
2022-12-08T00:34:27.583Z,13.77
2022-12-08T00:34:59.389Z,12.88
2022-12-08T00:35:31.199Z,12.88
2022-12-08T00:36:10.651Z,13.23
2022-12-08T00:36:43.436Z,13.02
2022-12-08T00:37:15.267Z,17.33
2022-12-08T00:37:47.118Z,19.12
2022-12-08T00:38:18.966Z,16.73
2022-12-08T00:38:51.085Z,17.73
2022-12-08T00:39:23.063Z,15.30
2022-12-08T00:39:54.926Z,16.20
2022-12-08T00:40:26.834Z,16.05
2022-12-08T00:40:58.813Z,18.90
2022-12-08T00:41:49.185Z,16.23
2022-12-08T00:42:21.319Z,17.05
2022-12-08T00:42:53.288Z,14.30
2022-12-08T00:43:25.250Z,13.60
2022-12-08T00:43:57.457Z,13.38
2022-12-08T00:44:29.475Z,12.65
2022-12-08T00:45:01.413Z,12.60
2022-12-08T00:45:33.346Z,13.73
2022-12-08T00:46:05.435Z,13.62
2022-12-08T00:46:37.323Z,14.82
2022-12-08T00:47:09.382Z,14.85
2022-12-08T00:47:41.192Z,14.27
2022-12-08T00:48:12.997Z,14.35
2022-12-08T00:48:44.839Z,13.77
2022-12-08T00:49:17.945Z,14.18
2022-12-08T00:49:49.828Z,13.40
2022-12-08T00:50:21.700Z,14.60
2022-12-08T00:50:53.606Z,13.70
2022-12-08T00:51:25.437Z,12.63
2022-12-08T00:51:57.328Z,13.77
2022-12-08T00:52:29.270Z,11.85
2022-12-08T00:53:01.086Z,12.25
2022-12-08T00:53:32.982Z,13.62
2022-12-08T00:54:06.198Z,12.75
2022-12-08T00:54:38.574Z,13.00
2022-12-08T00:55:10.444Z,11.57
2022-12-08T00:55:43.519Z,11.23
2022-12-08T00:56:15.333Z,11.82
2022-12-08T00:56:47.283Z,12.07
2022-12-08T00:57:19.120Z,12.63
2022-12-08T00:57:51.058Z,12.37
2022-12-08T00:58:22.899Z,12.13
2022-12-08T00:58:55.000Z,11.70
2022-12-08T00:59:26.921Z,11.20
2022-12-08T00:59:59.108Z,11.68
2022-12-08T01:00:30.938Z,11.52
2022-12-08T01:01:09.554Z,13.38
2022-12-08T01:01:44.006Z,12.45
2022-12-08T01:02:15.962Z,12.07
2022-12-08T01:02:47.845Z,11.63
2022-12-08T01:03:19.904Z,11.32
2022-12-08T01:03:51.830Z,13.30
2022-12-08T01:04:23.708Z,12.98
2022-12-08T01:04:55.599Z,13.30
2022-12-08T01:05:27.718Z,12.32
2022-12-08T01:06:04.225Z,12.15
2022-12-08T01:06:36.276Z,12.55
2022-12-08T01:07:08.701Z,12.07
2022-12-08T01:07:40.781Z,12.23
2022-12-08T01:08:12.754Z,12.00
2022-12-08T01:08:45.187Z,12.57
2022-12-08T01:09:18.303Z,12.25
2022-12-08T01:09:50.174Z,11.88
2022-12-08T01:10:21.969Z,12.18
2022-12-08T01:10:54.134Z,11.93
2022-12-08T01:11:26.015Z,12.93
2022-12-08T01:11:57.850Z,12.80
2022-12-08T01:12:30.534Z,12.68
2022-12-08T01:13:02.473Z,13.00
2022-12-08T01:13:34.878Z,12.57
2022-12-08T01:14:06.958Z,13.50
2022-12-08T01:14:38.753Z,11.90
2022-12-08T01:15:10.735Z,11.80
2022-12-08T01:15:42.522Z,12.77
2022-12-08T01:16:28.632Z,12.63
2022-12-08T01:17:00.572Z,11.75
2022-12-08T01:17:32.552Z,13.05
2022-12-08T01:18:04.466Z,13.00
2022-12-08T01:18:36.934Z,12.15
2022-12-08T01:19:11.086Z,12.57
2022-12-08T01:19:43.250Z,11.85
2022-12-08T01:20:15.127Z,12.68
2022-12-08T01:20:47.059Z,12.48
2022-12-08T01:21:19.491Z,13.13
2022-12-08T01:21:51.359Z,13.32
2022-12-08T01:22:23.222Z,13.27
2022-12-08T01:22:55.038Z,11.98
2022-12-08T01:23:27.975Z,12.18
2022-12-08T01:24:00.650Z,13.00
2022-12-08T01:24:32.531Z,12.60
2022-12-08T01:25:04.702Z,12.37
2022-12-08T01:25:36.578Z,13.05
2022-12-08T01:26:10.574Z,11.88
2022-12-08T01:26:43.421Z,12.27
2022-12-08T01:27:16.261Z,12.25
2022-12-08T01:27:48.445Z,12.63
2022-12-08T01:28:20.464Z,12.45
2022-12-08T01:28:52.457Z,13.27
2022-12-08T01:29:24.350Z,12.05
2022-12-08T01:29:56.323Z,11.93
2022-12-08T01:30:28.275Z,12.32
2022-12-08T01:31:01.453Z,12.25
2022-12-08T01:31:33.333Z,11.57
2022-12-08T01:32:05.621Z,12.63
2022-12-08T01:32:37.753Z,11.45
2022-12-08T01:33:09.620Z,12.60
2022-12-08T01:33:41.621Z,11.52
2022-12-08T01:34:13.501Z,10.90
2022-12-08T01:34:45.337Z,12.13
2022-12-08T01:35:17.359Z,13.32
2022-12-08T01:35:49.492Z,11.68
2022-12-08T01:36:29.752Z,12.65
2022-12-08T01:37:01.621Z,11.55
2022-12-08T01:37:33.749Z,12.02
2022-12-08T01:38:05.661Z,12.65
2022-12-08T01:38:37.612Z,12.77
2022-12-08T01:39:16.633Z,12.73
2022-12-08T01:39:48.530Z,12.82
2022-12-08T01:40:20.444Z,13.95
2022-12-08T01:40:52.258Z,13.62
2022-12-08T01:41:26.998Z,15.55
2022-12-08T01:41:58.904Z,16.00
2022-12-08T01:42:32.421Z,16.60
2022-12-08T01:43:04.569Z,14.73
2022-12-08T01:43:58.041Z,16.40
2022-12-08T01:44:29.806Z,18.83
2022-12-08T01:45:05.319Z,18.52
2022-12-08T01:45:37.367Z,19.85
2022-12-08T01:46:09.305Z,18.02
2022-12-08T01:46:44.013Z,18.20
2022-12-08T01:47:15.893Z,18.20
2022-12-08T01:47:51.950Z,15.40
2022-12-08T01:48:27.203Z,16.50
2022-12-08T01:49:05.311Z,15.13
2022-12-08T01:49:37.539Z,15.20
2022-12-08T01:50:13.020Z,15.88
2022-12-08T01:50:46.780Z,14.77
2022-12-08T01:51:19.669Z,14.30
2022-12-08T01:51:51.496Z,14.73
2022-12-08T01:52:46.627Z,13.48
2022-12-08T01:53:32.761Z,12.55
2022-12-08T01:54:07.107Z,13.65
2022-12-08T01:54:58.345Z,11.95
2022-12-08T01:56:20.561Z,13.30
2022-12-08T01:57:07.223Z,14.10
2022-12-08T01:57:53.006Z,13.15
2022-12-08T01:58:48.058Z,13.48
2022-12-08T01:59:20.244Z,13.60
2022-12-08T02:00:02.874Z,13.52
2022-12-08T02:00:38.489Z,14.68
2022-12-08T02:01:11.334Z,14.40
2022-12-08T02:01:43.410Z,13.45
2022-12-08T02:02:15.860Z,14.70
2022-12-08T02:03:07.097Z,14.65
2022-12-08T02:04:14.042Z,12.88
2022-12-08T02:04:45.902Z,14.38
2022-12-08T02:05:20.087Z,14.35
2022-12-08T02:05:52.700Z,15.13
2022-12-08T02:06:27.710Z,14.27
2022-12-08T02:07:04.898Z,14.45
2022-12-08T02:07:39.968Z,13.27
2022-12-08T02:08:13.579Z,15.00
2022-12-08T02:08:46.037Z,14.52
2022-12-08T02:09:19.625Z,14.60
2022-12-08T02:09:53.846Z,13.75
2022-12-08T02:10:29.524Z,14.00
2022-12-08T02:11:01.650Z,14.43
2022-12-08T02:11:33.752Z,16.17
2022-12-08T02:12:05.897Z,15.90
2022-12-08T02:12:37.743Z,15.32
2022-12-08T02:13:13.236Z,15.73
2022-12-08T02:13:47.471Z,16.12
2022-12-08T02:14:19.359Z,16.35
2022-12-08T02:14:51.329Z,16.90
2022-12-08T02:15:34.074Z,15.82
2022-12-08T02:16:45.533Z,16.77
2022-12-08T02:17:27.567Z,14.55
2022-12-08T02:18:17.894Z,15.90
2022-12-08T02:19:30.334Z,16.17
2022-12-08T02:20:23.894Z,14.40
2022-12-08T02:21:09.285Z,16.20
2022-12-08T02:21:52.989Z,15.63
2022-12-08T02:22:58.646Z,17.70
2022-12-08T02:23:59.354Z,16.98
2022-12-08T02:25:03.421Z,16.50
2022-12-08T02:25:35.227Z,17.30
2022-12-08T02:26:39.346Z,16.77
2022-12-08T02:27:20.138Z,17.87
2022-12-08T02:28:22.314Z,18.95
2022-12-08T02:29:17.110Z,17.48
2022-12-08T02:30:04.826Z,17.27
2022-12-08T02:30:59.937Z,17.73
2022-12-08T02:31:43.895Z,17.25
2022-12-08T02:32:24.443Z,19.05
2022-12-08T02:33:50.115Z,17.25
2022-12-08T02:34:24.747Z,18.33
2022-12-08T02:35:05.495Z,18.10
2022-12-08T02:37:06.767Z,18.20
2022-12-08T02:37:50.234Z,19.65
2022-12-08T02:38:28.453Z,19.85
2022-12-08T02:39:23.389Z,19.40
2022-12-08T02:40:33.191Z,18.85
2022-12-08T02:41:36.408Z,20.45
2022-12-08T02:42:30.314Z,19.15
2022-12-08T02:43:16.954Z,19.02
2022-12-08T02:43:59.961Z,17.67
2022-12-08T02:44:35.645Z,17.33
2022-12-08T02:45:15.361Z,18.20
2022-12-08T02:46:00.209Z,15.32
2022-12-08T02:46:45.239Z,14.90
2022-12-08T02:47:20.408Z,12.98
2022-12-08T02:47:52.681Z,13.32
2022-12-08T02:48:28.462Z,11.75
2022-12-08T02:49:02.244Z,13.73
2022-12-08T02:49:35.565Z,12.37
2022-12-08T02:50:08.305Z,12.85
2022-12-08T02:50:40.149Z,12.45
2022-12-08T02:51:12.002Z,12.85
2022-12-08T02:51:43.828Z,13.35
2022-12-08T02:52:15.649Z,14.02
2022-12-08T02:52:48.764Z,12.35
2022-12-08T02:53:20.646Z,13.20
2022-12-08T02:53:52.793Z,13.40
2022-12-08T02:54:25.090Z,13.15
2022-12-08T02:54:58.730Z,12.60
2022-12-08T02:55:56.509Z,13.50
2022-12-08T02:56:36.835Z,12.85
2022-12-08T02:57:11.503Z,11.98
2022-12-08T02:57:45.969Z,12.63
2022-12-08T02:58:39.330Z,12.70
2022-12-08T02:59:46.147Z,11.63
2022-12-08T03:00:23.568Z,12.77
2022-12-08T03:01:01.628Z,12.60
2022-12-08T03:02:03.381Z,12.75
2022-12-08T03:02:53.915Z,14.05
2022-12-08T03:04:10.383Z,13.02
2022-12-08T03:05:03.290Z,13.65
2022-12-08T03:05:55.386Z,14.18
2022-12-08T03:06:47.541Z,13.40
2022-12-08T03:07:19.369Z,13.02
2022-12-08T03:08:04.449Z,13.90
2022-12-08T03:08:49.865Z,12.85
2022-12-08T03:09:24.459Z,13.27
2022-12-08T03:10:03.552Z,14.45
2022-12-08T03:10:46.515Z,13.50
2022-12-08T03:11:24.821Z,14.60
2022-12-08T03:12:03.439Z,13.82
2022-12-08T03:12:41.713Z,15.57
2022-12-08T03:13:20.453Z,14.52
2022-12-08T03:13:56.230Z,14.48
2022-12-08T03:14:30.438Z,14.32
2022-12-08T03:15:09.547Z,16.00
2022-12-08T03:15:45.472Z,16.42
2022-12-08T03:16:22.708Z,15.32
2022-12-08T03:16:57.945Z,15.73
2022-12-08T03:17:31.740Z,15.23
2022-12-08T03:18:06.533Z,16.33
2022-12-08T03:18:44.207Z,15.15
2022-12-08T03:19:26.631Z,13.98
2022-12-08T03:20:04.816Z,14.68
2022-12-08T03:20:38.488Z,14.32
2022-12-08T03:21:12.112Z,13.93
2022-12-08T03:21:46.333Z,15.43
2022-12-08T03:22:27.595Z,13.02
2022-12-08T03:23:02.270Z,14.73
2022-12-08T03:23:38.157Z,14.07
2022-12-08T03:24:11.270Z,13.60
2022-12-08T03:24:45.907Z,14.30
2022-12-08T03:25:21.379Z,13.95
2022-12-08T03:26:18.569Z,14.55
2022-12-08T03:26:56.948Z,13.43
2022-12-08T03:27:31.626Z,14.50
2022-12-08T03:28:03.597Z,13.43
2022-12-08T03:28:35.518Z,13.43
2022-12-08T03:29:08.164Z,14.05
2022-12-08T03:29:40.532Z,12.88
2022-12-08T03:30:12.810Z,13.35
2022-12-08T03:30:48.244Z,12.55
2022-12-08T03:31:23.901Z,12.57
2022-12-08T03:32:09.117Z,13.98
2022-12-08T03:32:55.372Z,12.70
2022-12-08T03:33:32.971Z,13.15
2022-12-08T03:34:05.730Z,13.15
2022-12-08T03:34:40.469Z,12.57
2022-12-08T03:35:15.914Z,12.98
2022-12-08T03:35:48.066Z,13.07
2022-12-08T03:36:20.960Z,13.25
2022-12-08T03:36:52.778Z,14.00
2022-12-08T03:37:27.153Z,14.02
2022-12-08T03:38:08.132Z,12.02
2022-12-08T03:38:43.397Z,13.52
2022-12-08T03:39:15.258Z,12.45
2022-12-08T03:39:47.551Z,13.50
2022-12-08T03:40:20.645Z,13.88
2022-12-08T03:41:11.201Z,13.65
2022-12-08T03:41:43.109Z,12.18
2022-12-08T03:42:14.964Z,12.10
2022-12-08T03:42:47.196Z,13.02
2022-12-08T03:43:19.019Z,13.55
2022-12-08T03:43:53.357Z,13.23
2022-12-08T03:44:25.197Z,12.60
2022-12-08T03:44:57.076Z,13.35
2022-12-08T03:45:29.078Z,12.82
2022-12-08T03:46:01.023Z,13.38
2022-12-08T03:46:32.911Z,12.45
2022-12-08T03:47:04.997Z,13.00
2022-12-08T03:47:37.533Z,13.10
2022-12-08T03:48:09.681Z,12.80
2022-12-08T03:48:41.603Z,12.70
2022-12-08T03:49:13.435Z,13.60
2022-12-08T03:49:45.238Z,13.60
2022-12-08T03:50:17.095Z,13.62
2022-12-08T03:50:48.881Z,12.82
2022-12-08T03:51:22.174Z,13.20
2022-12-08T03:51:53.979Z,12.88
2022-12-08T03:52:25.809Z,13.15
2022-12-08T03:52:57.665Z,13.85
2022-12-08T03:53:29.825Z,13.93
2022-12-08T03:54:01.674Z,13.52
2022-12-08T03:54:33.560Z,16.92
2022-12-08T03:55:05.845Z,19.73
2022-12-08T03:55:37.730Z,18.52
2022-12-08T03:56:15.788Z,17.85
2022-12-08T03:56:47.724Z,15.27
2022-12-08T03:57:19.627Z,15.88
2022-12-08T03:57:51.434Z,14.73
2022-12-08T03:58:23.269Z,13.20
2022-12-08T03:58:56.007Z,13.65
2022-12-08T03:59:27.825Z,12.77
2022-12-08T03:59:59.649Z,13.30
2022-12-08T04:00:31.491Z,12.35
2022-12-08T04:01:03.652Z,12.30
2022-12-08T04:01:35.598Z,13.02
2022-12-08T04:02:07.543Z,13.60
2022-12-08T04:02:39.592Z,12.63
2022-12-08T04:03:11.561Z,12.82
2022-12-08T04:03:43.742Z,13.62
2022-12-08T04:04:15.626Z,13.48
2022-12-08T04:04:47.717Z,13.00
2022-12-08T04:05:19.558Z,11.90
2022-12-08T04:05:51.396Z,12.52
2022-12-08T04:06:24.378Z,13.10
2022-12-08T04:06:56.225Z,13.35
2022-12-08T04:07:28.092Z,14.85
2022-12-08T04:08:01.195Z,14.48
2022-12-08T04:08:33.173Z,14.20
2022-12-08T04:09:05.094Z,14.63
2022-12-08T04:09:36.962Z,15.48
2022-12-08T04:10:09.394Z,14.60
2022-12-08T04:10:41.258Z,14.50
2022-12-08T04:11:13.213Z,15.05
2022-12-08T04:11:45.485Z,15.18
2022-12-08T04:12:17.459Z,14.65
2022-12-08T04:12:49.428Z,15.10
2022-12-08T04:13:21.601Z,14.80
2022-12-08T04:13:53.452Z,15.45
2022-12-08T04:14:25.328Z,15.38
2022-12-08T04:14:57.135Z,15.02
2022-12-08T04:15:28.956Z,14.70
2022-12-08T04:16:00.959Z,15.20
2022-12-08T04:16:32.978Z,15.25
2022-12-08T04:17:05.231Z,15.10
2022-12-08T04:17:37.092Z,14.93
2022-12-08T04:18:08.906Z,15.23
2022-12-08T04:18:40.717Z,15.85
2022-12-08T04:19:12.509Z,14.82
2022-12-08T04:19:44.309Z,15.07
2022-12-08T04:20:16.103Z,15.27
2022-12-08T04:20:47.956Z,14.65
2022-12-08T04:21:20.077Z,14.65
2022-12-08T04:21:51.933Z,14.32
2022-12-08T04:22:24.121Z,14.77
2022-12-08T04:22:56.071Z,14.52
2022-12-08T04:23:28.282Z,13.95
2022-12-08T04:24:01.447Z,13.68
2022-12-08T04:24:33.531Z,13.07
2022-12-08T04:25:06.039Z,14.07
2022-12-08T04:25:38.144Z,13.35
2022-12-08T04:26:10.490Z,13.43
2022-12-08T04:26:42.347Z,13.00
2022-12-08T04:27:14.210Z,15.13
2022-12-08T04:27:46.327Z,13.77
2022-12-08T04:28:18.207Z,13.95
2022-12-08T04:28:49.993Z,13.95
2022-12-08T04:29:21.932Z,14.02
2022-12-08T04:29:53.768Z,13.73
2022-12-08T04:30:25.577Z,13.45
2022-12-08T04:30:57.790Z,13.30
2022-12-08T04:31:29.748Z,13.55
2022-12-08T04:32:01.695Z,14.55
2022-12-08T04:32:33.538Z,13.98
2022-12-08T04:33:06.106Z,13.93
2022-12-08T04:33:38.498Z,14.18
2022-12-08T04:34:10.439Z,14.30
2022-12-08T04:34:42.276Z,13.23
2022-12-08T04:35:14.182Z,13.40
2022-12-08T04:35:46.022Z,14.13
2022-12-08T04:36:17.838Z,14.20
2022-12-08T04:36:49.682Z,14.18
2022-12-08T04:37:21.501Z,14.50
2022-12-08T04:37:53.378Z,14.30
2022-12-08T04:38:25.571Z,13.75
2022-12-08T04:38:58.136Z,14.75
2022-12-08T04:39:29.984Z,13.77
2022-12-08T04:40:02.152Z,14.18
2022-12-08T04:40:34.261Z,14.73
2022-12-08T04:41:06.339Z,15.10
2022-12-08T04:41:38.178Z,13.98
2022-12-08T04:42:10.041Z,13.82
2022-12-08T04:42:42.870Z,14.38
2022-12-08T04:43:14.721Z,13.93
2022-12-08T04:43:46.892Z,15.65
2022-12-08T04:44:18.915Z,15.45
2022-12-08T04:44:50.712Z,15.15
2022-12-08T04:45:22.671Z,14.38
2022-12-08T04:45:54.505Z,16.12
2022-12-08T04:46:26.424Z,15.90
2022-12-08T04:46:58.436Z,17.58
2022-12-08T04:47:30.296Z,16.80
2022-12-08T04:48:02.894Z,17.55
2022-12-08T04:48:36.958Z,18.85
2022-12-08T04:49:09.101Z,19.20
2022-12-08T04:49:40.963Z,19.90
2022-12-08T04:50:13.270Z,20.77
2022-12-08T04:50:46.004Z,20.33
2022-12-08T04:51:20.042Z,19.27
2022-12-08T04:51:51.868Z,17.77
2022-12-08T04:52:23.731Z,18.05
2022-12-08T04:52:55.613Z,17.77
2022-12-08T04:53:27.490Z,18.27
2022-12-08T04:53:59.404Z,19.15
2022-12-08T04:54:31.629Z,18.48
2022-12-08T04:55:04.200Z,18.40
2022-12-08T04:55:43.795Z,20.17
2022-12-08T04:56:17.793Z,21.42
2022-12-08T04:56:49.604Z,25.50
2022-12-08T04:57:21.528Z,23.67
2022-12-08T04:57:53.355Z,21.73
2022-12-08T04:58:25.225Z,22.37
2022-12-08T04:58:57.031Z,21.25
2022-12-08T04:59:28.897Z,19.05
2022-12-08T05:00:01.191Z,20.30
2022-12-08T05:00:33.627Z,19.02
2022-12-08T05:01:05.803Z,19.23
2022-12-08T05:01:37.786Z,19.25
2022-12-08T05:02:09.992Z,18.70
2022-12-08T05:02:42.048Z,18.90
2022-12-08T05:03:15.068Z,18.52
2022-12-08T05:03:46.918Z,18.80
2022-12-08T05:04:18.748Z,17.00
2022-12-08T05:04:50.583Z,16.67
2022-12-08T05:05:22.862Z,15.15
2022-12-08T05:05:54.771Z,15.85
2022-12-08T05:06:26.659Z,15.88
2022-12-08T05:06:58.572Z,15.60
2022-12-08T05:07:30.447Z,16.67
2022-12-08T05:08:02.598Z,16.33
2022-12-08T05:08:34.621Z,12.48
2022-12-08T05:09:06.523Z,17.80
2022-12-08T05:09:38.436Z,16.35
2022-12-08T05:10:10.371Z,15.52
2022-12-08T05:10:42.503Z,16.08
2022-12-08T05:11:14.396Z,16.70
2022-12-08T05:11:49.088Z,15.18
2022-12-08T05:12:21.246Z,16.20
2022-12-08T05:12:53.230Z,16.83
2022-12-08T05:13:25.060Z,15.73
2022-12-08T05:13:56.870Z,17.10
2022-12-08T05:14:28.703Z,14.95
2022-12-08T05:15:00.536Z,15.38
2022-12-08T05:15:32.404Z,15.88
2022-12-08T05:16:10.816Z,16.83
2022-12-08T05:16:43.349Z,15.65
2022-12-08T05:17:16.883Z,15.25
2022-12-08T05:17:48.733Z,15.68
2022-12-08T05:18:20.547Z,15.20
2022-12-08T05:18:52.380Z,16.20
2022-12-08T05:19:24.438Z,14.50
2022-12-08T05:19:56.303Z,15.25
2022-12-08T05:20:28.346Z,13.40
2022-12-08T05:21:00.334Z,14.18
2022-12-08T05:21:32.502Z,13.93
2022-12-08T05:22:04.353Z,13.60
2022-12-08T05:22:39.276Z,13.65
2022-12-08T05:23:14.285Z,14.10
2022-12-08T05:24:02.599Z,13.70
2022-12-08T05:24:34.914Z,12.75
2022-12-08T05:25:06.997Z,12.77
2022-12-08T05:25:38.824Z,12.73
2022-12-08T05:26:10.687Z,12.30
2022-12-08T05:26:42.935Z,12.13
2022-12-08T05:27:15.386Z,13.52
2022-12-08T05:27:47.216Z,12.13
2022-12-08T05:28:44.445Z,12.60
2022-12-08T05:29:17.384Z,11.75
2022-12-08T05:29:50.397Z,11.43
2022-12-08T05:30:23.401Z,12.10
2022-12-08T05:30:55.262Z,11.82
2022-12-08T05:31:27.289Z,12.63
2022-12-08T05:31:59.477Z,13.20
2022-12-08T05:32:31.380Z,13.20
2022-12-08T05:33:07.584Z,13.52
2022-12-08T05:33:43.776Z,14.55
2022-12-08T05:34:15.646Z,13.85
2022-12-08T05:34:47.480Z,12.82
2022-12-08T05:35:19.321Z,14.10
2022-12-08T05:35:51.144Z,12.82
2022-12-08T05:36:23.058Z,12.82
2022-12-08T05:36:55.505Z,12.75
2022-12-08T05:37:27.660Z,13.27
2022-12-08T05:37:59.490Z,13.40
2022-12-08T05:38:31.315Z,13.48
2022-12-08T05:39:03.568Z,13.18
2022-12-08T05:39:35.507Z,13.35
2022-12-08T05:40:08.192Z,14.85
2022-12-08T05:40:41.631Z,14.05
2022-12-08T05:41:19.730Z,12.98
2022-12-08T05:41:51.593Z,13.27
2022-12-08T05:42:25.105Z,12.55
2022-12-08T05:42:57.421Z,13.82
2022-12-08T05:43:29.387Z,13.30
2022-12-08T05:44:01.247Z,14.02
2022-12-08T05:44:33.153Z,14.13
2022-12-08T05:45:05.609Z,13.43
2022-12-08T05:45:37.594Z,12.85
2022-12-08T05:46:09.642Z,13.82
2022-12-08T05:46:41.669Z,14.32
2022-12-08T05:47:13.465Z,13.85
2022-12-08T05:47:45.306Z,13.85
2022-12-08T05:48:17.469Z,12.80
2022-12-08T05:48:49.301Z,13.13
2022-12-08T05:49:21.142Z,13.07
2022-12-08T05:49:53.339Z,14.05
2022-12-08T05:50:25.179Z,15.43
2022-12-08T05:51:00.982Z,13.32
2022-12-08T05:51:33.189Z,14.45
2022-12-08T05:52:05.202Z,13.62
2022-12-08T05:52:37.050Z,13.68
2022-12-08T05:53:08.864Z,14.48
2022-12-08T05:53:41.032Z,14.13
2022-12-08T05:54:14.180Z,14.55
2022-12-08T05:54:46.065Z,13.90
2022-12-08T05:55:17.881Z,14.10
2022-12-08T05:55:49.764Z,14.13
2022-12-08T05:56:22.183Z,13.60
2022-12-08T05:56:54.040Z,13.15
2022-12-08T05:57:25.866Z,12.88
2022-12-08T05:57:57.727Z,13.60
2022-12-08T05:58:30.006Z,13.65
2022-12-08T05:59:04.933Z,13.27
2022-12-08T05:59:37.616Z,13.40
2022-12-08T06:00:10.718Z,14.05
2022-12-08T06:00:44.881Z,14.35
2022-12-08T06:01:30.407Z,14.87
2022-12-08T06:02:02.447Z,14.20
2022-12-08T06:02:35.647Z,14.05
2022-12-08T06:03:08.069Z,13.57
2022-12-08T06:03:39.930Z,13.27
2022-12-08T06:04:11.732Z,13.73
2022-12-08T06:04:43.566Z,13.95
2022-12-08T06:05:15.735Z,14.25
2022-12-08T06:05:47.955Z,14.32
2022-12-08T06:06:20.547Z,14.00
2022-12-08T06:06:52.451Z,15.63
2022-12-08T06:07:24.236Z,15.82
2022-12-08T06:07:56.174Z,16.83
2022-12-08T06:08:28.192Z,16.00
2022-12-08T06:09:00.166Z,15.93
2022-12-08T06:09:32.046Z,16.40
2022-12-08T06:10:05.085Z,16.08
2022-12-08T06:10:41.597Z,15.65
2022-12-08T06:11:23.603Z,16.33
2022-12-08T06:11:55.761Z,15.82
2022-12-08T06:12:27.595Z,17.95
2022-12-08T06:12:59.678Z,20.65
2022-12-08T06:13:31.493Z,31.20
2022-12-08T06:14:03.502Z,41.20
2022-12-08T06:14:35.419Z,38.78
2022-12-08T06:15:08.098Z,25.95
2022-12-08T06:15:41.070Z,22.45
2022-12-08T06:16:13.025Z,17.98
2022-12-08T06:16:44.915Z,17.52
2022-12-08T06:17:17.054Z,15.90
2022-12-08T06:17:48.946Z,15.88
2022-12-08T06:18:20.792Z,15.35
2022-12-08T06:18:52.768Z,15.88
2022-12-08T06:19:24.618Z,15.68
2022-12-08T06:19:56.512Z,15.02
2022-12-08T06:20:29.159Z,16.17
2022-12-08T06:21:09.080Z,15.77
2022-12-08T06:21:40.992Z,15.65
2022-12-08T06:22:12.860Z,15.30
2022-12-08T06:22:45.038Z,15.57
2022-12-08T06:23:16.862Z,14.95
2022-12-08T06:23:53.234Z,15.23
2022-12-08T06:24:25.206Z,16.75
2022-12-08T06:24:57.267Z,15.63
2022-12-08T06:25:29.154Z,17.10
2022-12-08T06:26:02.945Z,15.65
2022-12-08T06:26:36.118Z,17.33
2022-12-08T06:27:07.990Z,17.65
2022-12-08T06:27:39.861Z,17.98
2022-12-08T06:28:11.998Z,16.35
2022-12-08T06:28:44.161Z,16.77
2022-12-08T06:29:15.992Z,15.70
2022-12-08T06:29:47.801Z,16.85
2022-12-08T06:30:19.737Z,17.92
2022-12-08T06:30:51.593Z,17.25
2022-12-08T06:31:25.684Z,17.00
2022-12-08T06:31:57.699Z,16.77
2022-12-08T06:32:29.737Z,16.73
2022-12-08T06:33:01.595Z,17.75
2022-12-08T06:33:33.773Z,17.85
2022-12-08T06:34:06.191Z,17.70
2022-12-08T06:34:38.029Z,16.95
2022-12-08T06:35:09.921Z,17.67
2022-12-08T06:35:41.731Z,11.00
2022-12-08T06:36:15.220Z,9.85
2022-12-08T06:36:47.039Z,24.70
2022-12-08T06:37:19.412Z,22.77
2022-12-08T06:37:51.816Z,17.65
2022-12-08T06:38:23.722Z,18.37
2022-12-08T06:38:56.434Z,16.45
2022-12-08T06:39:28.304Z,17.67
2022-12-08T06:40:00.157Z,17.12
2022-12-08T06:40:32.017Z,16.55
2022-12-08T06:41:05.772Z,16.70
2022-12-08T06:41:57.617Z,16.17
2022-12-08T06:42:44.776Z,17.65
2022-12-08T06:43:16.584Z,16.05
2022-12-08T06:43:48.424Z,16.50
2022-12-08T06:44:20.521Z,17.52
2022-12-08T06:44:52.621Z,16.27
2022-12-08T06:45:24.538Z,16.70
2022-12-08T06:45:56.429Z,16.70
2022-12-08T06:46:28.434Z,17.37
2022-12-08T06:47:00.273Z,17.10
2022-12-08T06:47:32.093Z,18.40
2022-12-08T06:48:04.084Z,19.23
2022-12-08T06:48:36.305Z,18.90
2022-12-08T06:49:08.117Z,19.60
2022-12-08T06:49:40.609Z,19.10
2022-12-08T06:50:13.462Z,19.05
2022-12-08T06:50:45.530Z,19.60
2022-12-08T06:51:20.493Z,18.20
2022-12-08T06:51:52.331Z,19.35
2022-12-08T06:52:24.160Z,19.23
2022-12-08T06:53:04.868Z,19.85
2022-12-08T06:53:38.597Z,18.08
2022-12-08T06:54:10.551Z,20.37
2022-12-08T06:54:42.766Z,18.98
2022-12-08T06:55:35.530Z,18.52
2022-12-08T06:56:07.953Z,18.90
2022-12-08T06:56:39.784Z,18.12
2022-12-08T06:57:11.658Z,18.20
2022-12-08T06:57:43.505Z,19.62
2022-12-08T06:58:15.349Z,20.67
2022-12-08T06:58:52.468Z,19.27
2022-12-08T06:59:26.169Z,19.40
2022-12-08T06:59:58.310Z,19.67
2022-12-08T07:00:30.436Z,17.92
2022-12-08T07:01:11.764Z,18.42
2022-12-08T07:01:43.701Z,19.37
2022-12-08T07:02:16.011Z,19.60
2022-12-08T07:02:47.936Z,18.62
2022-12-08T07:03:19.798Z,19.70
2022-12-08T07:03:51.753Z,18.17
2022-12-08T07:04:23.919Z,19.00
2022-12-08T07:04:55.781Z,19.85
2022-12-08T07:05:27.956Z,18.42
2022-12-08T07:06:03.827Z,18.83
2022-12-08T07:06:36.133Z,18.40
2022-12-08T07:07:08.087Z,18.65
2022-12-08T07:07:40.101Z,18.42
2022-12-08T07:08:12.081Z,19.02
2022-12-08T07:08:44.291Z,19.80
2022-12-08T07:09:16.111Z,18.52
2022-12-08T07:09:48.004Z,20.15
2022-12-08T07:10:20.093Z,18.90
2022-12-08T07:10:52.576Z,19.98
2022-12-08T07:11:24.403Z,19.37
2022-12-08T07:11:56.235Z,20.02
2022-12-08T07:12:28.072Z,19.35
2022-12-08T07:12:59.934Z,18.15
2022-12-08T07:13:31.753Z,20.17
2022-12-08T07:14:03.577Z,19.60
2022-12-08T07:14:35.490Z,17.73
2022-12-08T07:15:08.199Z,19.37
2022-12-08T07:15:40.199Z,19.02
2022-12-08T07:16:12.719Z,18.52
2022-12-08T07:16:44.714Z,18.48
2022-12-08T07:17:16.667Z,18.42
2022-12-08T07:17:49.018Z,19.25
2022-12-08T07:18:20.937Z,20.08
2022-12-08T07:18:52.775Z,20.05
2022-12-08T07:19:24.665Z,18.85
2022-12-08T07:19:56.494Z,20.20
2022-12-08T07:20:28.553Z,19.42
2022-12-08T07:21:06.093Z,19.50
2022-12-08T07:21:38.279Z,20.42
2022-12-08T07:22:10.179Z,19.83
2022-12-08T07:22:42.202Z,20.00
2022-12-08T07:23:14.203Z,19.37
2022-12-08T07:23:50.208Z,22.02
2022-12-08T07:24:26.094Z,22.52
2022-12-08T07:24:57.951Z,22.23
2022-12-08T07:25:29.974Z,21.08
2022-12-08T07:26:04.111Z,23.25
2022-12-08T07:26:35.978Z,22.55
2022-12-08T07:27:08.157Z,19.45
2022-12-08T07:27:40.009Z,18.02
2022-12-08T07:28:11.893Z,16.80